sensor_id;sensor_type;location;lat;lon;timestamp;P1;durP1;ratioP1;P2;durP2;ratioP2
35891;SDS011;21993;42.672;23.296;2022-09-09T00:00:36;16.50;;;11.33;;
35891;SDS011;21993;42.672;23.296;2022-09-09T00:05:53;14.40;;;11.40;;
35891;SDS011;21993;42.672;23.296;2022-09-09T00:08:26;14.93;;;10.90;;
35891;SDS011;21993;42.672;23.296;2022-09-09T00:11:04;17.00;;;10.80;;
35891;SDS011;21993;42.672;23.296;2022-09-09T00:16:17;16.30;;;10.37;;
35891;SDS011;21993;42.672;23.296;2022-09-09T00:21:44;17.57;;;11.63;;
35891;SDS011;21993;42.672;23.296;2022-09-09T00:27:07;17.07;;;12.17;;
35891;SDS011;21993;42.672;23.296;2022-09-09T00:32:15;16.03;;;11.07;;
35891;SDS011;21993;42.672;23.296;2022-09-09T00:34:49;14.77;;;11.50;;
35891;SDS011;21993;42.672;23.296;2022-09-09T00:37:19;15.13;;;11.07;;
35891;SDS011;21993;42.672;23.296;2022-09-09T00:39:46;20.07;;;10.83;;
35891;SDS011;21993;42.672;23.296;2022-09-09T00:47:52;19.33;;;11.43;;
35891;SDS011;21993;42.672;23.296;2022-09-09T00:58:30;13.03;;;10.20;;
35891;SDS011;21993;42.672;23.296;2022-09-09T01:03:35;13.63;;;10.47;;
35891;SDS011;21993;42.672;23.296;2022-09-09T01:09:10;16.37;;;11.00;;
35891;SDS011;21993;42.672;23.296;2022-09-09T01:11:48;15.93;;;11.07;;
35891;SDS011;21993;42.672;23.296;2022-09-09T01:27:45;12.70;;;9.93;;
35891;SDS011;21993;42.672;23.296;2022-09-09T01:30:14;19.50;;;11.03;;
35891;SDS011;21993;42.672;23.296;2022-09-09T01:32:43;15.17;;;10.90;;
35891;SDS011;21993;42.672;23.296;2022-09-09T01:37:59;16.00;;;11.37;;
35891;SDS011;21993;42.672;23.296;2022-09-09T01:40:25;12.10;;;10.03;;
35891;SDS011;21993;42.672;23.296;2022-09-09T01:42:51;13.13;;;10.77;;
35891;SDS011;21993;42.672;23.296;2022-09-09T01:45:17;15.43;;;11.23;;
35891;SDS011;21993;42.672;23.296;2022-09-09T01:47:43;18.23;;;11.43;;
35891;SDS011;21993;42.672;23.296;2022-09-09T01:50:10;14.40;;;11.00;;
35891;SDS011;21993;42.672;23.296;2022-09-09T01:52:39;18.77;;;11.83;;
35891;SDS011;21993;42.672;23.296;2022-09-09T01:55:07;16.53;;;10.27;;
35891;SDS011;21993;42.672;23.296;2022-09-09T01:57:53;16.30;;;11.40;;
35891;SDS011;21993;42.672;23.296;2022-09-09T02:00:21;15.47;;;11.20;;
35891;SDS011;21993;42.672;23.296;2022-09-09T02:08:20;13.10;;;10.57;;
35891;SDS011;21993;42.672;23.296;2022-09-09T02:13:38;14.57;;;10.33;;
35891;SDS011;21993;42.672;23.296;2022-09-09T02:16:08;13.20;;;11.03;;
35891;SDS011;21993;42.672;23.296;2022-09-09T02:21:26;17.80;;;11.53;;
35891;SDS011;21993;42.672;23.296;2022-09-09T02:23:53;12.90;;;10.57;;
35891;SDS011;21993;42.672;23.296;2022-09-09T02:26:21;13.10;;;10.93;;
35891;SDS011;21993;42.672;23.296;2022-09-09T02:28:48;16.20;;;10.67;;
35891;SDS011;21993;42.672;23.296;2022-09-09T02:31:16;15.67;;;11.00;;
35891;SDS011;21993;42.672;23.296;2022-09-09T02:33:46;13.87;;;10.30;;
35891;SDS011;21993;42.672;23.296;2022-09-09T02:36:17;14.70;;;10.73;;
35891;SDS011;21993;42.672;23.296;2022-09-09T02:38:46;17.93;;;11.57;;
35891;SDS011;21993;42.672;23.296;2022-09-09T02:41:23;15.70;;;10.87;;
35891;SDS011;21993;42.672;23.296;2022-09-09T02:43:51;16.70;;;10.93;;
35891;SDS011;21993;42.672;23.296;2022-09-09T02:49:10;13.80;;;11.40;;
35891;SDS011;21993;42.672;23.296;2022-09-09T02:54:30;14.57;;;12.00;;
35891;SDS011;21993;42.672;23.296;2022-09-09T02:57:17;15.47;;;11.70;;
35891;SDS011;21993;42.672;23.296;2022-09-09T02:59:47;15.37;;;11.50;;
35891;SDS011;21993;42.672;23.296;2022-09-09T03:02:13;14.50;;;11.33;;
35891;SDS011;21993;42.672;23.296;2022-09-09T03:04:39;18.67;;;11.30;;
35891;SDS011;21993;42.672;23.296;2022-09-09T03:07:05;17.50;;;11.57;;
35891;SDS011;21993;42.672;23.296;2022-09-09T03:09:31;16.77;;;11.70;;
35891;SDS011;21993;42.672;23.296;2022-09-09T03:11:57;13.50;;;11.60;;
35891;SDS011;21993;42.672;23.296;2022-09-09T03:14:24;15.67;;;11.07;;
35891;SDS011;21993;42.672;23.296;2022-09-09T03:16:53;16.00;;;11.50;;
35891;SDS011;21993;42.672;23.296;2022-09-09T03:19:19;14.17;;;11.57;;
35891;SDS011;21993;42.672;23.296;2022-09-09T03:21:46;14.07;;;11.43;;
35891;SDS011;21993;42.672;23.296;2022-09-09T03:24:12;16.57;;;12.90;;
35891;SDS011;21993;42.672;23.296;2022-09-09T03:26:39;18.50;;;11.77;;
35891;SDS011;21993;42.672;23.296;2022-09-09T03:29:06;19.93;;;13.20;;
35891;SDS011;21993;42.672;23.296;2022-09-09T03:31:32;15.57;;;12.33;;
35891;SDS011;21993;42.672;23.296;2022-09-09T03:33:59;13.90;;;11.73;;
35891;SDS011;21993;42.672;23.296;2022-09-09T03:36:27;15.57;;;12.10;;
35891;SDS011;21993;42.672;23.296;2022-09-09T03:38:53;14.27;;;11.80;;
35891;SDS011;21993;42.672;23.296;2022-09-09T03:41:20;15.57;;;11.50;;
35891;SDS011;21993;42.672;23.296;2022-09-09T03:43:48;16.23;;;12.43;;
35891;SDS011;21993;42.672;23.296;2022-09-09T03:46:21;21.77;;;12.90;;
35891;SDS011;21993;42.672;23.296;2022-09-09T03:48:48;18.10;;;11.93;;
35891;SDS011;21993;42.672;23.296;2022-09-09T03:51:14;19.67;;;11.53;;
35891;SDS011;21993;42.672;23.296;2022-09-09T03:53:41;17.70;;;12.07;;
35891;SDS011;21993;42.672;23.296;2022-09-09T03:56:08;18.50;;;11.70;;
35891;SDS011;21993;42.672;23.296;2022-09-09T03:58:34;16.53;;;12.40;;
35891;SDS011;21993;42.672;23.296;2022-09-09T04:01:05;15.60;;;12.17;;
35891;SDS011;21993;42.672;23.296;2022-09-09T04:03:33;20.30;;;13.00;;
35891;SDS011;21993;42.672;23.296;2022-09-09T04:05:59;23.33;;;14.27;;
35891;SDS011;21993;42.672;23.296;2022-09-09T04:08:27;14.80;;;13.07;;
35891;SDS011;21993;42.672;23.296;2022-09-09T04:10:53;15.90;;;12.20;;
35891;SDS011;21993;42.672;23.296;2022-09-09T04:13:22;15.23;;;12.13;;
35891;SDS011;21993;42.672;23.296;2022-09-09T04:15:54;19.27;;;12.47;;
35891;SDS011;21993;42.672;23.296;2022-09-09T04:18:21;17.63;;;12.97;;
35891;SDS011;21993;42.672;23.296;2022-09-09T04:20:49;16.87;;;12.90;;
35891;SDS011;21993;42.672;23.296;2022-09-09T04:23:15;20.47;;;12.27;;
35891;SDS011;21993;42.672;23.296;2022-09-09T04:25:48;21.13;;;13.57;;
35891;SDS011;21993;42.672;23.296;2022-09-09T04:28:16;16.27;;;13.17;;
35891;SDS011;21993;42.672;23.296;2022-09-09T04:30:42;18.37;;;13.60;;
35891;SDS011;21993;42.672;23.296;2022-09-09T04:33:08;15.97;;;12.73;;
35891;SDS011;21993;42.672;23.296;2022-09-09T04:35:35;16.83;;;12.43;;
35891;SDS011;21993;42.672;23.296;2022-09-09T04:38:01;18.97;;;13.37;;
35891;SDS011;21993;42.672;23.296;2022-09-09T04:40:28;24.00;;;13.47;;
35891;SDS011;21993;42.672;23.296;2022-09-09T04:42:54;21.17;;;14.20;;
35891;SDS011;21993;42.672;23.296;2022-09-09T04:45:22;19.07;;;13.83;;
35891;SDS011;21993;42.672;23.296;2022-09-09T04:47:47;19.57;;;14.57;;
35891;SDS011;21993;42.672;23.296;2022-09-09T04:50:13;23.23;;;14.97;;
35891;SDS011;21993;42.672;23.296;2022-09-09T04:52:39;22.17;;;15.83;;
35891;SDS011;21993;42.672;23.296;2022-09-09T04:55:06;21.10;;;14.33;;
35891;SDS011;21993;42.672;23.296;2022-09-09T04:57:32;19.73;;;14.43;;
35891;SDS011;21993;42.672;23.296;2022-09-09T04:59:58;16.77;;;14.00;;
35891;SDS011;21993;42.672;23.296;2022-09-09T05:02:25;26.10;;;18.27;;
35891;SDS011;21993;42.672;23.296;2022-09-09T05:04:51;21.33;;;14.70;;
35891;SDS011;21993;42.672;23.296;2022-09-09T05:07:16;16.87;;;14.07;;
35891;SDS011;21993;42.672;23.296;2022-09-09T05:09:42;20.07;;;14.37;;
35891;SDS011;21993;42.672;23.296;2022-09-09T05:12:08;23.10;;;14.80;;
35891;SDS011;21993;42.672;23.296;2022-09-09T05:14:33;20.27;;;14.63;;
35891;SDS011;21993;42.672;23.296;2022-09-09T05:17:01;16.80;;;13.77;;
35891;SDS011;21993;42.672;23.296;2022-09-09T05:19:26;17.37;;;13.97;;
35891;SDS011;21993;42.672;23.296;2022-09-09T05:21:52;21.53;;;14.13;;
35891;SDS011;21993;42.672;23.296;2022-09-09T05:24:17;17.57;;;13.57;;
35891;SDS011;21993;42.672;23.296;2022-09-09T05:26:43;16.53;;;13.27;;
35891;SDS011;21993;42.672;23.296;2022-09-09T05:29:09;16.97;;;13.17;;
35891;SDS011;21993;42.672;23.296;2022-09-09T05:31:34;17.43;;;13.13;;
35891;SDS011;21993;42.672;23.296;2022-09-09T05:34:00;16.63;;;13.27;;
35891;SDS011;21993;42.672;23.296;2022-09-09T05:36:25;17.60;;;13.27;;
35891;SDS011;21993;42.672;23.296;2022-09-09T05:38:51;15.00;;;13.40;;
35891;SDS011;21993;42.672;23.296;2022-09-09T05:41:18;17.30;;;12.73;;
35891;SDS011;21993;42.672;23.296;2022-09-09T05:43:45;16.43;;;12.90;;
35891;SDS011;21993;42.672;23.296;2022-09-09T05:46:13;16.10;;;13.33;;
35891;SDS011;21993;42.672;23.296;2022-09-09T05:48:41;20.40;;;13.20;;
35891;SDS011;21993;42.672;23.296;2022-09-09T05:51:08;15.60;;;13.23;;
35891;SDS011;21993;42.672;23.296;2022-09-09T05:53:40;15.93;;;12.27;;
35891;SDS011;21993;42.672;23.296;2022-09-09T05:56:16;15.90;;;11.80;;
35891;SDS011;21993;42.672;23.296;2022-09-09T05:58:44;16.00;;;12.73;;
35891;SDS011;21993;42.672;23.296;2022-09-09T06:01:21;17.67;;;14.07;;
35891;SDS011;21993;42.672;23.296;2022-09-09T06:03:47;14.80;;;11.30;;
35891;SDS011;21993;42.672;23.296;2022-09-09T06:06:14;12.90;;;11.00;;
35891;SDS011;21993;42.672;23.296;2022-09-09T06:08:43;14.03;;;11.03;;
35891;SDS011;21993;42.672;23.296;2022-09-09T06:11:17;15.97;;;10.97;;
35891;SDS011;21993;42.672;23.296;2022-09-09T06:13:44;13.80;;;10.33;;
35891;SDS011;21993;42.672;23.296;2022-09-09T06:16:11;14.70;;;10.90;;
35891;SDS011;21993;42.672;23.296;2022-09-09T06:18:42;13.47;;;10.00;;
35891;SDS011;21993;42.672;23.296;2022-09-09T06:21:15;13.03;;;10.20;;
35891;SDS011;21993;42.672;23.296;2022-09-09T06:23:45;15.37;;;10.93;;
35891;SDS011;21993;42.672;23.296;2022-09-09T06:26:20;10.10;;;8.37;;
35891;SDS011;21993;42.672;23.296;2022-09-09T06:28:49;10.60;;;8.70;;
35891;SDS011;21993;42.672;23.296;2022-09-09T06:31:18;10.93;;;8.43;;
35891;SDS011;21993;42.672;23.296;2022-09-09T06:33:51;16.73;;;9.67;;
35891;SDS011;21993;42.672;23.296;2022-09-09T06:36:18;10.67;;;9.57;;
35891;SDS011;21993;42.672;23.296;2022-09-09T06:38:49;11.63;;;9.70;;
35891;SDS011;21993;42.672;23.296;2022-09-09T06:41:15;14.40;;;10.27;;
35891;SDS011;21993;42.672;23.296;2022-09-09T06:43:43;11.73;;;9.43;;
35891;SDS011;21993;42.672;23.296;2022-09-09T06:46:11;15.47;;;10.07;;
35891;SDS011;21993;42.672;23.296;2022-09-09T06:48:38;15.87;;;9.80;;
35891;SDS011;21993;42.672;23.296;2022-09-09T06:53:33;21.40;;;10.40;;
35891;SDS011;21993;42.672;23.296;2022-09-09T06:56:22;12.23;;;9.03;;
35891;SDS011;21993;42.672;23.296;2022-09-09T06:58:49;16.17;;;9.37;;
35891;SDS011;21993;42.672;23.296;2022-09-09T07:01:17;22.20;;;9.53;;
35891;SDS011;21993;42.672;23.296;2022-09-09T07:03:46;14.43;;;9.40;;
35891;SDS011;21993;42.672;23.296;2022-09-09T07:06:19;14.17;;;9.10;;
35891;SDS011;21993;42.672;23.296;2022-09-09T07:08:53;12.73;;;10.20;;
35891;SDS011;21993;42.672;23.296;2022-09-09T07:11:21;14.30;;;11.47;;
35891;SDS011;21993;42.672;23.296;2022-09-09T07:13:48;16.73;;;11.47;;
35891;SDS011;21993;42.672;23.296;2022-09-09T07:16:17;16.37;;;11.20;;
35891;SDS011;21993;42.672;23.296;2022-09-09T07:18:45;16.50;;;11.17;;
35891;SDS011;21993;42.672;23.296;2022-09-09T07:21:12;13.87;;;10.83;;
35891;SDS011;21993;42.672;23.296;2022-09-09T07:23:39;12.27;;;10.80;;
35891;SDS011;21993;42.672;23.296;2022-09-09T07:26:09;12.40;;;10.40;;
35891;SDS011;21993;42.672;23.296;2022-09-09T07:28:35;13.43;;;9.93;;
35891;SDS011;21993;42.672;23.296;2022-09-09T07:31:01;13.30;;;10.60;;
35891;SDS011;21993;42.672;23.296;2022-09-09T07:33:28;19.30;;;10.80;;
35891;SDS011;21993;42.672;23.296;2022-09-09T07:36:40;10.57;;;9.57;;
35891;SDS011;21993;42.672;23.296;2022-09-09T07:38:52;15.67;;;10.53;;
35891;SDS011;21993;42.672;23.296;2022-09-09T07:41:23;12.93;;;10.53;;
35891;SDS011;21993;42.672;23.296;2022-09-09T07:43:50;14.73;;;10.63;;
35891;SDS011;21993;42.672;23.296;2022-09-09T07:46:18;20.40;;;11.20;;
35891;SDS011;21993;42.672;23.296;2022-09-09T07:48:45;15.77;;;9.47;;
35891;SDS011;21993;42.672;23.296;2022-09-09T07:51:12;15.57;;;9.70;;
35891;SDS011;21993;42.672;23.296;2022-09-09T07:53:44;11.00;;;8.90;;
35891;SDS011;21993;42.672;23.296;2022-09-09T07:56:11;15.17;;;9.27;;
35891;SDS011;21993;42.672;23.296;2022-09-09T07:58:39;14.13;;;8.83;;
35891;SDS011;21993;42.672;23.296;2022-09-09T08:01:09;15.50;;;8.97;;
35891;SDS011;21993;42.672;23.296;2022-09-09T08:03:36;12.67;;;9.20;;
35891;SDS011;21993;42.672;23.296;2022-09-09T08:06:03;14.03;;;9.67;;
35891;SDS011;21993;42.672;23.296;2022-09-09T08:08:29;9.90;;;8.90;;
35891;SDS011;21993;42.672;23.296;2022-09-09T08:11:01;26.00;;;12.13;;
35891;SDS011;21993;42.672;23.296;2022-09-09T08:13:28;24.97;;;11.90;;
35891;SDS011;21993;42.672;23.296;2022-09-09T08:15:53;18.27;;;15.53;;
35891;SDS011;21993;42.672;23.296;2022-09-09T08:18:19;19.53;;;16.53;;
35891;SDS011;21993;42.672;23.296;2022-09-09T08:20:44;20.03;;;15.63;;
35891;SDS011;21993;42.672;23.296;2022-09-09T08:23:10;25.40;;;18.23;;
35891;SDS011;21993;42.672;23.296;2022-09-09T08:25:35;22.60;;;16.53;;
35891;SDS011;21993;42.672;23.296;2022-09-09T08:28:01;21.60;;;16.43;;
35891;SDS011;21993;42.672;23.296;2022-09-09T08:30:26;20.77;;;16.07;;
35891;SDS011;21993;42.672;23.296;2022-09-09T08:32:52;18.33;;;15.73;;
35891;SDS011;21993;42.672;23.296;2022-09-09T08:35:17;16.33;;;14.03;;
35891;SDS011;21993;42.672;23.296;2022-09-09T08:37:45;16.93;;;14.77;;
35891;SDS011;21993;42.672;23.296;2022-09-09T08:40:13;17.40;;;12.70;;
35891;SDS011;21993;42.672;23.296;2022-09-09T08:42:49;17.03;;;13.17;;
35891;SDS011;21993;42.672;23.296;2022-09-09T08:50:58;14.17;;;12.30;;
35891;SDS011;21993;42.672;23.296;2022-09-09T08:53:32;16.53;;;12.10;;
35891;SDS011;21993;42.672;23.296;2022-09-09T08:56:08;13.27;;;11.20;;
35891;SDS011;21993;42.672;23.296;2022-09-09T08:58:45;14.73;;;12.83;;
35891;SDS011;21993;42.672;23.296;2022-09-09T09:11:56;11.93;;;9.63;;
35891;SDS011;21993;42.672;23.296;2022-09-09T09:14:30;13.27;;;8.57;;
35891;SDS011;21993;42.672;23.296;2022-09-09T09:17:16;8.80;;;7.43;;
35891;SDS011;21993;42.672;23.296;2022-09-09T09:19:44;10.57;;;9.43;;
35891;SDS011;21993;42.672;23.296;2022-09-09T09:25:05;10.40;;;7.53;;
35891;SDS011;21993;42.672;23.296;2022-09-09T09:30:23;10.63;;;8.47;;
35891;SDS011;21993;42.672;23.296;2022-09-09T09:32:55;12.43;;;9.50;;
35891;SDS011;21993;42.672;23.296;2022-09-09T09:35:25;14.30;;;9.20;;
35891;SDS011;21993;42.672;23.296;2022-09-09T09:37:50;9.90;;;8.07;;
35891;SDS011;21993;42.672;23.296;2022-09-09T09:40:17;11.80;;;7.83;;
35891;SDS011;21993;42.672;23.296;2022-09-09T09:42:48;9.90;;;7.50;;
35891;SDS011;21993;42.672;23.296;2022-09-09T09:48:09;12.37;;;7.57;;
35891;SDS011;21993;42.672;23.296;2022-09-09T09:50:39;8.63;;;7.50;;
35891;SDS011;21993;42.672;23.296;2022-09-09T09:53:32;10.90;;;7.97;;
35891;SDS011;21993;42.672;23.296;2022-09-09T09:56:02;13.97;;;7.50;;
35891;SDS011;21993;42.672;23.296;2022-09-09T09:58:31;8.97;;;7.80;;
35891;SDS011;21993;42.672;23.296;2022-09-09T10:01:02;11.27;;;8.23;;
35891;SDS011;21993;42.672;23.296;2022-09-09T10:03:31;9.70;;;7.13;;
35891;SDS011;21993;42.672;23.296;2022-09-09T10:06:02;13.00;;;9.23;;
35891;SDS011;21993;42.672;23.296;2022-09-09T10:08:28;13.07;;;8.73;;
35891;SDS011;21993;42.672;23.296;2022-09-09T10:16:45;10.10;;;7.57;;
35891;SDS011;21993;42.672;23.296;2022-09-09T10:19:34;9.67;;;8.20;;
35891;SDS011;21993;42.672;23.296;2022-09-09T10:22:43;10.50;;;7.57;;
35891;SDS011;21993;42.672;23.296;2022-09-09T10:36:48;9.33;;;8.00;;
35891;SDS011;21993;42.672;23.296;2022-09-09T10:42:02;16.50;;;10.43;;
35891;SDS011;21993;42.672;23.296;2022-09-09T10:44:34;14.20;;;9.13;;
35891;SDS011;21993;42.672;23.296;2022-09-09T10:55:41;15.20;;;8.53;;
35891;SDS011;21993;42.672;23.296;2022-09-09T10:58:11;13.93;;;8.53;;
35891;SDS011;21993;42.672;23.296;2022-09-09T11:00:56;13.10;;;8.93;;
35891;SDS011;21993;42.672;23.296;2022-09-09T11:03:32;13.20;;;8.90;;
35891;SDS011;21993;42.672;23.296;2022-09-09T11:06:06;11.40;;;9.17;;
35891;SDS011;21993;42.672;23.296;2022-09-09T11:08:39;12.10;;;8.87;;
35891;SDS011;21993;42.672;23.296;2022-09-09T11:16:30;15.93;;;10.73;;
35891;SDS011;21993;42.672;23.296;2022-09-09T11:21:50;16.37;;;11.33;;
35891;SDS011;21993;42.672;23.296;2022-09-09T11:27:10;12.93;;;9.63;;
35891;SDS011;21993;42.672;23.296;2022-09-09T11:29:59;15.33;;;9.10;;
35891;SDS011;21993;42.672;23.296;2022-09-09T11:35:03;32.93;;;24.07;;
35891;SDS011;21993;42.672;23.296;2022-09-09T11:37:45;15.63;;;11.07;;
35891;SDS011;21993;42.672;23.296;2022-09-09T11:42:48;12.03;;;8.80;;
35891;SDS011;21993;42.672;23.296;2022-09-09T11:45:22;13.77;;;9.23;;
35891;SDS011;21993;42.672;23.296;2022-09-09T11:47:56;15.77;;;9.30;;
35891;SDS011;21993;42.672;23.296;2022-09-09T11:52:48;14.97;;;9.53;;
35891;SDS011;21993;42.672;23.296;2022-09-09T12:05:59;19.80;;;11.80;;
35891;SDS011;21993;42.672;23.296;2022-09-09T12:08:41;11.93;;;8.80;;
35891;SDS011;21993;42.672;23.296;2022-09-09T12:11:10;13.23;;;9.20;;
35891;SDS011;21993;42.672;23.296;2022-09-09T12:13:36;14.87;;;10.43;;
35891;SDS011;21993;42.672;23.296;2022-09-09T12:16:02;12.87;;;9.50;;
35891;SDS011;21993;42.672;23.296;2022-09-09T12:18:37;12.67;;;9.17;;
35891;SDS011;21993;42.672;23.296;2022-09-09T12:23:53;11.93;;;8.87;;
35891;SDS011;21993;42.672;23.296;2022-09-09T12:37:10;13.63;;;10.10;;
35891;SDS011;21993;42.672;23.296;2022-09-09T12:40:01;13.93;;;8.67;;
35891;SDS011;21993;42.672;23.296;2022-09-09T12:42:31;15.23;;;9.50;;
35891;SDS011;21993;42.672;23.296;2022-09-09T12:45:01;14.50;;;9.23;;
35891;SDS011;21993;42.672;23.296;2022-09-09T12:47:44;13.83;;;9.30;;
35891;SDS011;21993;42.672;23.296;2022-09-09T12:50:17;13.43;;;10.10;;
35891;SDS011;21993;42.672;23.296;2022-09-09T12:52:46;16.43;;;9.53;;
35891;SDS011;21993;42.672;23.296;2022-09-09T12:55:19;14.50;;;9.47;;
35891;SDS011;21993;42.672;23.296;2022-09-09T12:57:47;12.17;;;8.23;;
35891;SDS011;21993;42.672;23.296;2022-09-09T13:00:20;11.93;;;9.10;;
35891;SDS011;21993;42.672;23.296;2022-09-09T13:02:54;12.30;;;10.10;;
35891;SDS011;21993;42.672;23.296;2022-09-09T13:05:42;11.53;;;9.27;;
35891;SDS011;21993;42.672;23.296;2022-09-09T13:08:13;12.63;;;9.00;;
35891;SDS011;21993;42.672;23.296;2022-09-09T13:10:42;10.57;;;8.83;;
35891;SDS011;21993;42.672;23.296;2022-09-09T13:13:15;15.70;;;8.17;;
35891;SDS011;21993;42.672;23.296;2022-09-09T13:15:51;13.60;;;7.30;;
35891;SDS011;21993;42.672;23.296;2022-09-09T13:18:23;10.27;;;6.83;;
35891;SDS011;21993;42.672;23.296;2022-09-09T13:20:53;15.17;;;7.53;;
35891;SDS011;21993;42.672;23.296;2022-09-09T13:23:22;11.23;;;7.77;;
35891;SDS011;21993;42.672;23.296;2022-09-09T13:25:59;14.13;;;7.43;;
35891;SDS011;21993;42.672;23.296;2022-09-09T13:28:26;13.70;;;7.90;;
35891;SDS011;21993;42.672;23.296;2022-09-09T13:30:58;15.43;;;9.93;;
35891;SDS011;21993;42.672;23.296;2022-09-09T13:33:34;13.10;;;8.40;;
35891;SDS011;21993;42.672;23.296;2022-09-09T13:36:09;8.63;;;7.43;;
35891;SDS011;21993;42.672;23.296;2022-09-09T13:38:37;10.57;;;7.67;;
35891;SDS011;21993;42.672;23.296;2022-09-09T13:41:31;10.87;;;7.77;;
35891;SDS011;21993;42.672;23.296;2022-09-09T13:43:59;13.17;;;10.27;;
35891;SDS011;21993;42.672;23.296;2022-09-09T13:46:31;17.00;;;9.67;;
35891;SDS011;21993;42.672;23.296;2022-09-09T13:48:57;12.63;;;8.63;;
35891;SDS011;21993;42.672;23.296;2022-09-09T13:51:43;12.37;;;8.20;;
35891;SDS011;21993;42.672;23.296;2022-09-09T13:54:16;15.13;;;8.10;;
35891;SDS011;21993;42.672;23.296;2022-09-09T13:56:43;15.53;;;10.03;;
35891;SDS011;21993;42.672;23.296;2022-09-09T13:59:10;13.17;;;8.83;;
35891;SDS011;21993;42.672;23.296;2022-09-09T14:01:38;16.10;;;9.30;;
35891;SDS011;21993;42.672;23.296;2022-09-09T14:04:04;15.37;;;9.90;;
35891;SDS011;21993;42.672;23.296;2022-09-09T14:06:31;10.73;;;8.37;;
35891;SDS011;21993;42.672;23.296;2022-09-09T14:08:57;16.50;;;8.33;;
35891;SDS011;21993;42.672;23.296;2022-09-09T14:11:24;16.00;;;8.97;;
35891;SDS011;21993;42.672;23.296;2022-09-09T14:13:49;9.60;;;8.30;;
35891;SDS011;21993;42.672;23.296;2022-09-09T14:16:15;13.37;;;8.03;;
35891;SDS011;21993;42.672;23.296;2022-09-09T14:18:42;17.17;;;8.47;;
35891;SDS011;21993;42.672;23.296;2022-09-09T14:21:09;10.57;;;8.00;;
35891;SDS011;21993;42.672;23.296;2022-09-09T14:23:35;12.60;;;8.80;;
35891;SDS011;21993;42.672;23.296;2022-09-09T14:26:00;12.70;;;8.17;;
35891;SDS011;21993;42.672;23.296;2022-09-09T14:28:26;12.57;;;8.80;;
35891;SDS011;21993;42.672;23.296;2022-09-09T14:30:53;18.63;;;10.93;;
35891;SDS011;21993;42.672;23.296;2022-09-09T14:33:19;11.40;;;8.60;;
35891;SDS011;21993;42.672;23.296;2022-09-09T14:35:44;9.93;;;8.93;;
35891;SDS011;21993;42.672;23.296;2022-09-09T14:38:10;15.23;;;8.60;;
35891;SDS011;21993;42.672;23.296;2022-09-09T14:40:36;12.53;;;10.20;;
35891;SDS011;21993;42.672;23.296;2022-09-09T14:43:03;16.93;;;9.33;;
35891;SDS011;21993;42.672;23.296;2022-09-09T14:45:29;13.30;;;9.03;;
35891;SDS011;21993;42.672;23.296;2022-09-09T14:47:55;11.23;;;8.60;;
35891;SDS011;21993;42.672;23.296;2022-09-09T14:50:21;15.63;;;8.93;;
35891;SDS011;21993;42.672;23.296;2022-09-09T14:52:48;10.50;;;8.73;;
35891;SDS011;21993;42.672;23.296;2022-09-09T14:55:14;12.60;;;8.97;;
35891;SDS011;21993;42.672;23.296;2022-09-09T14:57:40;11.57;;;9.87;;
35891;SDS011;21993;42.672;23.296;2022-09-09T15:00:07;14.60;;;8.27;;
35891;SDS011;21993;42.672;23.296;2022-09-09T15:02:33;14.00;;;8.47;;
35891;SDS011;21993;42.672;23.296;2022-09-09T15:04:59;12.50;;;8.67;;
35891;SDS011;21993;42.672;23.296;2022-09-09T15:07:26;12.57;;;8.87;;
35891;SDS011;21993;42.672;23.296;2022-09-09T15:09:53;13.13;;;8.70;;
35891;SDS011;21993;42.672;23.296;2022-09-09T15:12:19;14.20;;;8.80;;
35891;SDS011;21993;42.672;23.296;2022-09-09T15:14:45;13.70;;;9.53;;
35891;SDS011;21993;42.672;23.296;2022-09-09T15:17:12;17.77;;;9.80;;
35891;SDS011;21993;42.672;23.296;2022-09-09T15:19:38;15.20;;;9.53;;
35891;SDS011;21993;42.672;23.296;2022-09-09T15:22:04;15.70;;;10.00;;
35891;SDS011;21993;42.672;23.296;2022-09-09T15:24:31;16.10;;;9.80;;
35891;SDS011;21993;42.672;23.296;2022-09-09T15:26:57;18.50;;;9.13;;
35891;SDS011;21993;42.672;23.296;2022-09-09T15:29:22;13.10;;;9.80;;
35891;SDS011;21993;42.672;23.296;2022-09-09T15:31:48;13.77;;;9.10;;
35891;SDS011;21993;42.672;23.296;2022-09-09T15:34:14;13.97;;;8.43;;
35891;SDS011;21993;42.672;23.296;2022-09-09T15:36:41;12.80;;;8.70;;
35891;SDS011;21993;42.672;23.296;2022-09-09T15:39:09;14.90;;;8.70;;
35891;SDS011;21993;42.672;23.296;2022-09-09T15:41:40;13.43;;;9.80;;
35891;SDS011;21993;42.672;23.296;2022-09-09T15:44:09;12.67;;;9.20;;
35891;SDS011;21993;42.672;23.296;2022-09-09T15:46:38;17.07;;;8.77;;
35891;SDS011;21993;42.672;23.296;2022-09-09T15:49:05;16.13;;;9.47;;
35891;SDS011;21993;42.672;23.296;2022-09-09T15:51:37;13.93;;;9.97;;
35891;SDS011;21993;42.672;23.296;2022-09-09T15:54:04;14.63;;;10.20;;
35891;SDS011;21993;42.672;23.296;2022-09-09T15:56:30;12.73;;;10.20;;
35891;SDS011;21993;42.672;23.296;2022-09-09T15:58:56;16.93;;;9.10;;
35891;SDS011;21993;42.672;23.296;2022-09-09T16:01:22;16.03;;;9.07;;
35891;SDS011;21993;42.672;23.296;2022-09-09T16:03:49;15.73;;;9.30;;
35891;SDS011;21993;42.672;23.296;2022-09-09T16:06:22;18.27;;;9.73;;
35891;SDS011;21993;42.672;23.296;2022-09-09T16:08:50;13.77;;;10.07;;
35891;SDS011;21993;42.672;23.296;2022-09-09T16:13:45;19.10;;;9.73;;
35891;SDS011;21993;42.672;23.296;2022-09-09T16:16:12;14.47;;;9.63;;
35891;SDS011;21993;42.672;23.296;2022-09-09T16:18:39;17.27;;;8.87;;
35891;SDS011;21993;42.672;23.296;2022-09-09T16:21:12;14.67;;;9.57;;
35891;SDS011;21993;42.672;23.296;2022-09-09T16:23:42;17.70;;;10.13;;
35891;SDS011;21993;42.672;23.296;2022-09-09T16:26:10;29.77;;;12.60;;
35891;SDS011;21993;42.672;23.296;2022-09-09T16:28:36;23.40;;;12.20;;
35891;SDS011;21993;42.672;23.296;2022-09-09T16:31:05;20.47;;;10.63;;
35891;SDS011;21993;42.672;23.296;2022-09-09T16:33:32;17.37;;;10.50;;
35891;SDS011;21993;42.672;23.296;2022-09-09T16:35:57;14.00;;;10.30;;
35891;SDS011;21993;42.672;23.296;2022-09-09T16:38:22;17.97;;;11.33;;
35891;SDS011;21993;42.672;23.296;2022-09-09T16:40:49;16.93;;;11.27;;
35891;SDS011;21993;42.672;23.296;2022-09-09T16:43:15;16.73;;;11.40;;
35891;SDS011;21993;42.672;23.296;2022-09-09T16:45:44;17.33;;;10.30;;
35891;SDS011;21993;42.672;23.296;2022-09-09T16:48:10;22.13;;;10.83;;
35891;SDS011;21993;42.672;23.296;2022-09-09T16:50:36;17.83;;;11.13;;
35891;SDS011;21993;42.672;23.296;2022-09-09T16:53:03;22.83;;;12.00;;
35891;SDS011;21993;42.672;23.296;2022-09-09T16:55:31;19.43;;;12.80;;
35891;SDS011;21993;42.672;23.296;2022-09-09T16:57:57;27.80;;;13.43;;
35891;SDS011;21993;42.672;23.296;2022-09-09T17:00:22;31.97;;;14.97;;
35891;SDS011;21993;42.672;23.296;2022-09-09T17:02:48;24.40;;;14.70;;
35891;SDS011;21993;42.672;23.296;2022-09-09T17:05:14;29.20;;;15.13;;
35891;SDS011;21993;42.672;23.296;2022-09-09T17:07:39;32.83;;;13.17;;
35891;SDS011;21993;42.672;23.296;2022-09-09T17:10:05;15.73;;;10.83;;
35891;SDS011;21993;42.672;23.296;2022-09-09T17:12:31;24.57;;;13.07;;